sensor_id;sensor_type;location;lat;lon;timestamp;pressure;altitude;pressure_sealevel;temperature;humidity
25156;BME280;21913;52.456;13.634;2022-11-15T00:00:04;99698.97;;;14.89;61.43
25156;BME280;21913;52.456;13.634;2022-11-15T00:05:24;99710.31;;;14.86;61.45
25156;BME280;21913;52.456;13.634;2022-11-15T00:10:55;99699.88;;;14.88;61.23
25156;BME280;21913;52.456;13.634;2022-11-15T00:16:15;99692.03;;;14.88;61.50
25156;BME280;21913;52.456;13.634;2022-11-15T00:21:37;99685.13;;;14.87;61.39
25156;BME280;21913;52.456;13.634;2022-11-15T00:26:57;99684.22;;;14.88;61.61
25156;BME280;21913;52.456;13.634;2022-11-15T00:32:17;99684.22;;;14.88;61.60
25156;BME280;21913;52.456;13.634;2022-11-15T00:37:37;99676.41;;;14.88;61.44
25156;BME280;21913;52.456;13.634;2022-11-15T00:42:58;99681.63;;;14.88;61.71
25156;BME280;21913;52.456;13.634;2022-11-15T00:48:18;99672.97;;;14.87;61.77
25156;BME280;21913;52.456;13.634;2022-11-15T00:53:38;99666.84;;;14.88;61.62
25156;BME280;21913;52.456;13.634;2022-11-15T00:58:58;99658.19;;;14.88;61.71
25156;BME280;21913;52.456;13.634;2022-11-15T01:04:18;99650.38;;;14.88;61.62
25156;BME280;21913;52.456;13.634;2022-11-15T01:09:39;99642.56;;;14.88;61.77
25156;BME280;21913;52.456;13.634;2022-11-15T01:14:59;99647.75;;;14.88;61.92
25156;BME280;21913;52.456;13.634;2022-11-15T01:20:19;99640.84;;;14.87;61.75
25156;BME280;21913;52.456;13.634;2022-11-15T01:25:38;99639.94;;;14.88;61.73
25156;BME280;21913;52.456;13.634;2022-11-15T01:31:05;99640.81;;;14.88;61.83
25156;BME280;21913;52.456;13.634;2022-11-15T01:36:26;99643.41;;;14.88;61.85
25156;BME280;21913;52.456;13.634;2022-11-15T01:41:46;99630.38;;;14.88;62.12
25156;BME280;21913;52.456;13.634;2022-11-15T01:47:14;99626.94;;;14.88;61.78
25156;BME280;21913;52.456;13.634;2022-11-15T01:52:36;99633.84;;;14.89;61.97
25156;BME280;21913;52.456;13.634;2022-11-15T01:57:59;99625.19;;;14.88;61.92
25156;BME280;21913;52.456;13.634;2022-11-15T02:03:29;99624.31;;;14.88;62.34
25156;BME280;21913;52.456;13.634;2022-11-15T02:08:51;99624.31;;;14.88;61.97
25156;BME280;21913;52.456;13.634;2022-11-15T02:14:11;99619.22;;;14.85;62.07
25156;BME280;21913;52.456;13.634;2022-11-15T02:36:02;99607.84;;;14.87;62.18
25156;BME280;21913;52.456;13.634;2022-11-15T02:41:41;99595.69;;;14.88;62.31
25156;BME280;21913;52.456;13.634;2022-11-15T02:47:07;99600.88;;;14.88;62.12
25156;BME280;21913;52.456;13.634;2022-11-15T02:52:31;99592.22;;;14.87;62.41
25156;BME280;21913;52.456;13.634;2022-11-15T02:57:57;99597.44;;;14.87;62.40
25156;BME280;21913;52.456;13.634;2022-11-15T03:09:40;99588.72;;;14.88;62.39
25156;BME280;21913;52.456;13.634;2022-11-15T03:15:19;99587.84;;;14.88;62.50
25156;BME280;21913;52.456;13.634;2022-11-15T03:20:42;99593.06;;;14.88;62.40
25156;BME280;21913;52.456;13.634;2022-11-15T03:26:05;99590.47;;;14.88;62.60
25156;BME280;21913;52.456;13.634;2022-11-15T03:31:29;99593.06;;;14.88;62.53
25156;BME280;21913;52.456;13.634;2022-11-15T03:36:51;99598.28;;;14.88;62.68
25156;BME280;21913;52.456;13.634;2022-11-15T03:42:16;99605.19;;;14.89;62.64
25156;BME280;21913;52.456;13.634;2022-11-15T03:47:46;99597.38;;;14.89;62.72
25156;BME280;21913;52.456;13.634;2022-11-15T03:53:09;99601.75;;;14.88;62.52
25156;BME280;21913;52.456;13.634;2022-11-15T03:58:30;99597.44;;;14.87;62.71
25156;BME280;21913;52.456;13.634;2022-11-15T04:03:50;99592.16;;;14.89;62.73
25156;BME280;21913;52.456;13.634;2022-11-15T04:09:10;99587.00;;;14.87;62.82
25156;BME280;21913;52.456;13.634;2022-11-15T04:14:30;99586.97;;;14.89;62.77
25156;BME280;21913;52.456;13.634;2022-11-15T04:19:50;99593.91;;;14.88;62.95
25156;BME280;21913;52.456;13.634;2022-11-15T04:25:10;99580.03;;;14.88;62.82
25156;BME280;21913;52.456;13.634;2022-11-15T04:30:30;99573.97;;;14.87;62.79
25156;BME280;21913;52.456;13.634;2022-11-15T04:35:51;99580.91;;;14.88;62.69
25156;BME280;21913;52.456;13.634;2022-11-15T04:41:11;99582.66;;;14.88;62.90
25156;BME280;21913;52.456;13.634;2022-11-15T04:46:31;99574.84;;;14.88;62.73
25156;BME280;21913;52.456;13.634;2022-11-15T04:51:52;99576.59;;;14.87;62.72
25156;BME280;21913;52.456;13.634;2022-11-15T04:57:12;99579.25;;;14.86;63.07
25156;BME280;21913;52.456;13.634;2022-11-15T05:02:32;99573.97;;;14.87;62.85
25156;BME280;21913;52.456;13.634;2022-11-15T05:07:52;99575.69;;;14.88;62.88
25156;BME280;21913;52.456;13.634;2022-11-15T05:13:12;99574.84;;;14.88;63.00
25156;BME280;21913;52.456;13.634;2022-11-15T05:18:32;99572.22;;;14.88;63.13
25156;BME280;21913;52.456;13.634;2022-11-15T05:23:52;99570.47;;;14.88;63.10
25156;BME280;21913;52.456;13.634;2022-11-15T05:29:12;99569.63;;;14.88;62.98
25156;BME280;21913;52.456;13.634;2022-11-15T05:34:33;99563.53;;;14.89;62.96
25156;BME280;21913;52.456;13.634;2022-11-15T05:39:53;99563.53;;;14.89;63.27
25156;BME280;21913;52.456;13.634;2022-11-15T05:45:13;99564.38;;;14.89;63.36
25156;BME280;21913;52.456;13.634;2022-11-15T05:50:34;99564.38;;;14.89;63.04
25156;BME280;21913;52.456;13.634;2022-11-15T05:55:56;99553.16;;;14.87;63.16
25156;BME280;21913;52.456;13.634;2022-11-15T06:01:16;99563.53;;;14.89;63.17
25156;BME280;21913;52.456;13.634;2022-11-15T06:06:36;99561.78;;;14.89;63.36
25156;BME280;21913;52.456;13.634;2022-11-15T06:11:56;99560.91;;;14.89;63.49
25156;BME280;21913;52.456;13.634;2022-11-15T06:17:16;99561.78;;;14.89;63.36
25156;BME280;21913;52.456;13.634;2022-11-15T06:22:36;99566.13;;;14.89;63.48
25156;BME280;21913;52.456;13.634;2022-11-15T06:27:57;99568.72;;;14.89;63.28
25156;BME280;21913;52.456;13.634;2022-11-15T06:33:18;99574.78;;;14.89;63.59
25156;BME280;21913;52.456;13.634;2022-11-15T06:38:38;99580.88;;;14.90;63.40
25156;BME280;21913;52.456;13.634;2022-11-15T06:43:58;99581.75;;;14.89;63.42
25156;BME280;21913;52.456;13.634;2022-11-15T06:49:18;99585.22;;;14.89;63.36
25156;BME280;21913;52.456;13.634;2022-11-15T06:54:38;99582.59;;;14.89;63.50
25156;BME280;21913;52.456;13.634;2022-11-15T06:59:58;99592.16;;;14.89;63.50
25156;BME280;21913;52.456;13.634;2022-11-15T07:05:18;99599.97;;;14.89;63.49
25156;BME280;21913;52.456;13.634;2022-11-15T07:10:38;99605.19;;;14.89;63.36
25156;BME280;21913;52.456;13.634;2022-11-15T07:16:02;99607.78;;;14.90;63.48
25156;BME280;21913;52.456;13.634;2022-11-15T07:21:22;99611.25;;;14.89;63.62
25156;BME280;21913;52.456;13.634;2022-11-15T07:26:46;99605.19;;;14.89;63.50
25156;BME280;21913;52.456;13.634;2022-11-15T07:32:06;99614.75;;;14.90;63.57
25156;BME280;21913;52.456;13.634;2022-11-15T07:37:26;99614.75;;;14.88;63.49
25156;BME280;21913;52.456;13.634;2022-11-15T07:42:46;99617.34;;;14.90;63.67
25156;BME280;21913;52.456;13.634;2022-11-15T07:48:06;99620.81;;;14.89;63.40
25156;BME280;21913;52.456;13.634;2022-11-15T07:53:26;99618.22;;;14.89;63.66
25156;BME280;21913;52.456;13.634;2022-11-15T07:58:47;99625.13;;;14.91;63.45
25156;BME280;21913;52.456;13.634;2022-11-15T08:04:07;99622.56;;;14.90;63.65
25156;BME280;21913;52.456;13.634;2022-11-15T08:09:27;99622.56;;;14.88;63.84
25156;BME280;21913;52.456;13.634;2022-11-15T08:14:47;99619.97;;;14.90;63.77
25156;BME280;21913;52.456;13.634;2022-11-15T08:20:08;99607.78;;;14.89;63.79
25156;BME280;21913;52.456;13.634;2022-11-15T08:25:30;99618.19;;;14.90;63.77
25156;BME280;21913;52.456;13.634;2022-11-15T08:30:51;99617.34;;;14.90;63.72
25156;BME280;21913;52.456;13.634;2022-11-15T08:36:14;99610.41;;;14.89;63.89
25156;BME280;21913;52.456;13.634;2022-11-15T08:41:36;99608.66;;;14.89;63.86
25156;BME280;21913;52.456;13.634;2022-11-15T08:46:57;99608.66;;;14.89;63.94
25156;BME280;21913;52.456;13.634;2022-11-15T08:52:17;99611.25;;;14.89;63.60
25156;BME280;21913;52.456;13.634;2022-11-15T08:57:37;99611.31;;;14.88;63.96
25156;BME280;21913;52.456;13.634;2022-11-15T09:02:57;99616.47;;;14.89;63.74
25156;BME280;21913;52.456;13.634;2022-11-15T09:08:17;99607.78;;;14.89;63.81
25156;BME280;21913;52.456;13.634;2022-11-15T09:13:57;99600.84;;;14.89;63.87
25156;BME280;21913;52.456;13.634;2022-11-15T09:19:17;99601.72;;;14.90;63.99
25156;BME280;21913;52.456;13.634;2022-11-15T09:24:37;99597.44;;;14.87;63.82
25156;BME280;21913;52.456;13.634;2022-11-15T09:29:58;99594.78;;;14.89;63.90
25156;BME280;21913;52.456;13.634;2022-11-15T09:35:18;99598.22;;;14.89;63.89
25156;BME280;21913;52.456;13.634;2022-11-15T09:40:38;99598.22;;;14.91;63.79
25156;BME280;21913;52.456;13.634;2022-11-15T09:46:12;99588.69;;;14.90;64.02
25156;BME280;21913;52.456;13.634;2022-11-15T09:51:48;99589.56;;;14.90;64.08
25156;BME280;21913;52.456;13.634;2022-11-15T09:56:51;99592.09;;;14.92;64.03
25156;BME280;21913;52.456;13.634;2022-11-15T10:12:26;99573.03;;;14.91;64.00
25156;BME280;21913;52.456;13.634;2022-11-15T10:22:51;99564.34;;;14.91;64.04
25156;BME280;21913;52.456;13.634;2022-11-15T10:27:55;99560.00;;;14.91;64.04
25156;BME280;21913;52.456;13.634;2022-11-15T10:32:57;99559.16;;;14.91;64.17
25156;BME280;21913;52.456;13.634;2022-11-15T10:38:07;99548.69;;;14.92;63.78
25156;BME280;21913;52.456;13.634;2022-11-15T10:53:33;99543.47;;;14.92;63.96
25156;BME280;21913;52.456;13.634;2022-11-15T10:58:44;99527.84;;;14.92;64.00
25156;BME280;21913;52.456;13.634;2022-11-15T11:04:07;99524.38;;;14.92;63.99
25156;BME280;21913;52.456;13.634;2022-11-15T11:09:30;99518.28;;;14.93;64.01
25156;BME280;21913;52.456;13.634;2022-11-15T11:14:34;99504.41;;;14.92;64.23
25156;BME280;21913;52.456;13.634;2022-11-15T11:25:12;99477.44;;;14.93;63.91
25156;BME280;21913;52.456;13.634;2022-11-15T11:30:21;99475.75;;;14.92;63.96
25156;BME280;21913;52.456;13.634;2022-11-15T11:35:56;99476.59;;;14.93;63.86
25156;BME280;21913;52.456;13.634;2022-11-15T11:41:04;99467.09;;;14.92;64.17
25156;BME280;21913;52.456;13.634;2022-11-15T11:46:29;99466.19;;;14.93;63.90
25156;BME280;21913;52.456;13.634;2022-11-15T11:52:01;99457.47;;;14.94;63.98
25156;BME280;21913;52.456;13.634;2022-11-15T11:57:07;99460.97;;;14.93;64.02
25156;BME280;21913;52.456;13.634;2022-11-15T12:02:39;99454.84;;;14.94;64.23
25156;BME280;21913;52.456;13.634;2022-11-15T12:07:39;99447.09;;;14.92;64.12
25156;BME280;21913;52.456;13.634;2022-11-15T12:13:03;99432.41;;;14.90;63.14
25156;BME280;21913;52.456;13.634;2022-11-15T12:18:09;99432.38;;;14.91;63.24
25156;BME280;21913;52.456;13.634;2022-11-15T12:23:23;99421.03;;;14.92;63.33
25156;BME280;21913;52.456;13.634;2022-11-15T12:33:49;99415.00;;;14.92;63.46
25156;BME280;21913;52.456;13.634;2022-11-15T12:38:59;99409.78;;;14.92;63.47
25156;BME280;21913;52.456;13.634;2022-11-15T12:44:04;99413.28;;;14.91;63.38
25156;BME280;21913;52.456;13.634;2022-11-15T13:04:55;99388.03;;;14.93;62.66
25156;BME280;21913;52.456;13.634;2022-11-15T13:20:26;99371.56;;;14.92;62.80
25156;BME280;21913;52.456;13.634;2022-11-15T13:30:56;99370.66;;;14.93;63.19
25156;BME280;21913;52.456;13.634;2022-11-15T13:36:13;99353.28;;;14.94;63.13
25156;BME280;21913;52.456;13.634;2022-11-15T13:46:25;99344.56;;;14.95;63.33
25156;BME280;21913;52.456;13.634;2022-11-15T13:51:29;99340.34;;;14.91;63.39
25156;BME280;21913;52.456;13.634;2022-11-15T13:56:32;99340.31;;;14.92;62.98
25156;BME280;21913;52.456;13.634;2022-11-15T14:01:34;99326.38;;;14.93;63.31
25156;BME280;21913;52.456;13.634;2022-11-15T14:06:44;99330.69;;;14.94;63.37
25156;BME280;21913;52.456;13.634;2022-11-15T14:11:54;99328.06;;;14.94;63.49
25156;BME280;21913;52.456;13.634;2022-11-15T14:16:58;99311.59;;;14.94;63.25
25156;BME280;21913;52.456;13.634;2022-11-15T14:22:14;99311.59;;;14.94;63.51
25156;BME280;21913;52.456;13.634;2022-11-15T14:27:25;99301.19;;;14.94;63.34
25156;BME280;21913;52.456;13.634;2022-11-15T14:32:29;99301.19;;;14.94;63.54
25156;BME280;21913;52.456;13.634;2022-11-15T14:37:32;99295.97;;;14.94;63.47
25156;BME280;21913;52.456;13.634;2022-11-15T14:42:34;99298.56;;;14.94;63.50
25156;BME280;21913;52.456;13.634;2022-11-15T14:47:36;99292.50;;;14.93;63.67
25156;BME280;21913;52.456;13.634;2022-11-15T14:52:38;99293.41;;;14.92;63.80
25156;BME280;21913;52.456;13.634;2022-11-15T14:57:40;99282.94;;;14.94;63.50
25156;BME280;21913;52.456;13.634;2022-11-15T15:02:43;99284.69;;;14.93;63.67
25156;BME280;21913;52.456;13.634;2022-11-15T15:07:46;99268.22;;;14.93;63.67
25156;BME280;21913;52.456;13.634;2022-11-15T15:12:48;99264.78;;;14.92;62.84
25156;BME280;21913;52.456;13.634;2022-11-15T15:17:50;99252.66;;;14.91;62.37
25156;BME280;21913;52.456;13.634;2022-11-15T15:22:52;99240.47;;;14.92;62.37
25156;BME280;21913;52.456;13.634;2022-11-15T15:27:54;99243.09;;;14.92;62.74
25156;BME280;21913;52.456;13.634;2022-11-15T15:32:56;99229.16;;;14.93;62.67
25156;BME280;21913;52.456;13.634;2022-11-15T15:37:58;99213.53;;;14.93;62.80
25156;BME280;21913;52.456;13.634;2022-11-15T15:42:59;99203.97;;;14.93;62.76
25156;BME280;21913;52.456;13.634;2022-11-15T15:48:01;99197.91;;;14.93;62.89
25156;BME280;21913;52.456;13.634;2022-11-15T15:53:04;99195.28;;;14.93;62.81
25156;BME280;21913;52.456;13.634;2022-11-15T15:58:06;99187.47;;;14.93;62.90
25156;BME280;21913;52.456;13.634;2022-11-15T16:03:07;99184.88;;;14.93;63.03
25156;BME280;21913;52.456;13.634;2022-11-15T16:08:27;99176.22;;;14.92;63.27
25156;BME280;21913;52.456;13.634;2022-11-15T16:13:32;99183.19;;;14.92;63.17
25156;BME280;21913;52.456;13.634;2022-11-15T16:18:34;99171.84;;;14.93;63.15
25156;BME280;21913;52.456;13.634;2022-11-15T16:23:35;99164.03;;;14.93;63.11
25156;BME280;21913;52.456;13.634;2022-11-15T16:28:37;99165.75;;;14.94;63.22
25156;BME280;21913;52.456;13.634;2022-11-15T16:33:39;99153.63;;;14.93;63.18
25156;BME280;21913;52.456;13.634;2022-11-15T16:38:41;99149.25;;;14.93;63.37
25156;BME280;21913;52.456;13.634;2022-11-15T16:43:45;99144.91;;;14.94;63.44
25156;BME280;21913;52.456;13.634;2022-11-15T16:48:47;99137.09;;;14.94;63.38
25156;BME280;21913;52.456;13.634;2022-11-15T16:53:49;99135.38;;;14.93;63.58
25156;BME280;21913;52.456;13.634;2022-11-15T16:58:52;99138.84;;;14.93;63.37
25156;BME280;21913;52.456;13.634;2022-11-15T17:03:54;99126.72;;;14.92;63.49
25156;BME280;21913;52.456;13.634;2022-11-15T17:08:56;99127.56;;;14.93;63.38
25156;BME280;21913;52.456;13.634;2022-11-15T17:13:58;99112.81;;;14.93;63.41
25156;BME280;21913;52.456;13.634;2022-11-15T17:19:00;99110.19;;;14.93;63.73
25156;BME280;21913;52.456;13.634;2022-11-15T17:24:02;99115.41;;;14.93;63.42
25156;BME280;21913;52.456;13.634;2022-11-15T17:29:04;99112.81;;;14.93;63.42
25156;BME280;21913;52.456;13.634;2022-11-15T17:34:06;99104.06;;;14.94;63.63
25156;BME280;21913;52.456;13.634;2022-11-15T17:39:08;99105.91;;;14.92;63.71
25156;BME280;21913;52.456;13.634;2022-11-15T17:44:09;99102.38;;;14.93;63.61
25156;BME280;21913;52.456;13.634;2022-11-15T17:49:11;99092.81;;;14.94;63.58
25156;BME280;21913;52.456;13.634;2022-11-15T17:54:13;99098.94;;;14.93;63.78
25156;BME280;21913;52.456;13.634;2022-11-15T17:59:14;99099.78;;;14.93;63.65
25156;BME280;21913;52.456;13.634;2022-11-15T18:04:17;99094.56;;;14.93;63.66
25156;BME280;21913;52.456;13.634;2022-11-15T18:09:19;99092.81;;;14.94;63.65
25156;BME280;21913;52.456;13.634;2022-11-15T18:14:21;99083.25;;;14.94;63.92
25156;BME280;21913;52.456;13.634;2022-11-15T18:19:22;99090.22;;;14.94;63.89
25156;BME280;21913;52.456;13.634;2022-11-15T18:24:29;99086.69;;;14.95;63.89
25156;BME280;21913;52.456;13.634;2022-11-15T18:29:31;99083.31;;;14.93;63.98
25156;BME280;21913;52.456;13.634;2022-11-15T18:34:32;99070.22;;;14.94;63.92
25156;BME280;21913;52.456;13.634;2022-11-15T18:39:34;99066.75;;;14.94;63.99
25156;BME280;21913;52.456;13.634;2022-11-15T18:44:36;99074.59;;;14.94;64.00
25156;BME280;21913;52.456;13.634;2022-11-15T18:49:37;99067.63;;;14.94;63.99
25156;BME280;21913;52.456;13.634;2022-11-15T18:54:39;99065.00;;;14.94;64.02
25156;BME280;21913;52.456;13.634;2022-11-15T18:59:40;99073.66;;;14.95;63.99
25156;BME280;21913;52.456;13.634;2022-11-15T19:04:42;99056.34;;;14.94;63.97
25156;BME280;21913;52.456;13.634;2022-11-15T19:09:44;99058.03;;;14.95;63.94
25156;BME280;21913;52.456;13.634;2022-11-15T19:14:45;99049.38;;;14.94;64.07
25156;BME280;21913;52.456;13.634;2022-11-15T19:19:47;99055.44;;;14.95;64.09
25156;BME280;21913;52.456;13.634;2022-11-15T19:24:49;99036.34;;;14.94;64.05
25156;BME280;21913;52.456;13.634;2022-11-15T19:29:50;99041.56;;;14.94;63.94
25156;BME280;21913;52.456;13.634;2022-11-15T19:34:52;99034.59;;;14.95;63.72
25156;BME280;21913;52.456;13.634;2022-11-15T19:39:54;99033.81;;;14.93;64.03
25156;BME280;21913;52.456;13.634;2022-11-15T19:44:55;99028.03;;;14.85;63.22
25156;BME280;21913;52.456;13.634;2022-11-15T19:49:57;99024.56;;;14.84;62.93
25156;BME280;21913;52.456;13.634;2022-11-15T19:54:58;99027.00;;;14.89;62.99
25156;BME280;21913;52.456;13.634;2022-11-15T20:00:00;99020.91;;;14.90;63.20
25156;BME280;21913;52.456;13.634;2022-11-15T20:05:04;99011.28;;;14.92;62.96
25156;BME280;21913;52.456;13.634;2022-11-15T20:10:07;99007.78;;;14.93;63.07
25156;BME280;21913;52.456;13.634;2022-11-15T20:15:09;99009.47;;;14.94;63.26
25156;BME280;21913;52.456;13.634;2022-11-15T20:20:11;98999.91;;;14.94;63.46
25156;BME280;21913;52.456;13.634;2022-11-15T20:25:12;98988.63;;;14.94;63.37
25156;BME280;21913;52.456;13.634;2022-11-15T20:30:15;98988.63;;;14.94;63.41
25156;BME280;21913;52.456;13.634;2022-11-15T20:35:17;98990.31;;;14.95;63.66
25156;BME280;21913;52.456;13.634;2022-11-15T20:40:19;98981.66;;;14.94;63.39
25156;BME280;21913;52.456;13.634;2022-11-15T20:45:20;98981.63;;;14.96;63.57
25156;BME280;21913;52.456;13.634;2022-11-15T20:50:25;98977.28;;;14.96;63.47
25156;BME280;21913;52.456;13.634;2022-11-15T20:55:44;98964.34;;;14.93;63.55
25156;BME280;21913;52.456;13.634;2022-11-15T21:00:46;98969.50;;;14.95;63.61
25156;BME280;21913;52.456;13.634;2022-11-15T21:05:48;98965.16;;;14.95;63.73
25156;BME280;21913;52.456;13.634;2022-11-15T21:10:51;98961.69;;;14.95;63.81
25156;BME280;21913;52.456;13.634;2022-11-15T21:15:56;98954.75;;;14.95;63.90
25156;BME280;21913;52.456;13.634;2022-11-15T21:21:05;98954.75;;;14.95;63.83
25156;BME280;21913;52.456;13.634;2022-11-15T21:26:06;98954.75;;;14.95;63.80
25156;BME280;21913;52.456;13.634;2022-11-15T21:31:08;98942.56;;;14.96;64.07
25156;BME280;21913;52.456;13.634;2022-11-15T21:36:10;98939.97;;;14.96;63.77
25156;BME280;21913;52.456;13.634;2022-11-15T21:41:11;98930.44;;;14.95;64.01
25156;BME280;21913;52.456;13.634;2022-11-15T21:46:13;98929.53;;;14.96;63.74
25156;BME280;21913;52.456;13.634;2022-11-15T21:51:14;98922.59;;;14.95;64.02
25156;BME280;21913;52.456;13.634;2022-11-15T21:56:16;98922.56;;;14.96;63.88
25156;BME280;21913;52.456;13.634;2022-11-15T22:01:18;98918.28;;;14.95;63.93
25156;BME280;21913;52.456;13.634;2022-11-15T22:06:19;98916.53;;;14.96;64.06
25156;BME280;21913;52.456;13.634;2022-11-15T22:11:21;98914.75;;;14.96;63.76
25156;BME280;21913;52.456;13.634;2022-11-15T22:16:23;98913.91;;;14.96;63.97
25156;BME280;21913;52.456;13.634;2022-11-15T22:21:24;98914.75;;;14.96;64.02
25156;BME280;21913;52.456;13.634;2022-11-15T22:26:26;98912.19;;;14.95;64.05
25156;BME280;21913;52.456;13.634;2022-11-15T22:31:28;98903.50;;;14.96;64.07
25156;BME280;21913;52.456;13.634;2022-11-15T22:36:30;98902.59;;;14.97;64.13
25156;BME280;21913;52.456;13.634;2022-11-15T22:41:39;98889.63;;;14.95;64.03
25156;BME280;21913;52.456;13.634;2022-11-15T22:46:41;98893.09;;;14.96;64.21
25156;BME280;21913;52.456;13.634;2022-11-15T22:51:42;98887.03;;;14.95;64.38
25156;BME280;21913;52.456;13.634;2022-11-15T22:56:44;98880.91;;;14.96;64.06
25156;BME280;21913;52.456;13.634;2022-11-15T23:01:46;98876.53;;;14.97;64.29
25156;BME280;21913;52.456;13.634;2022-11-15T23:06:48;98867.03;;;14.96;64.20
25156;BME280;21913;52.456;13.634;2022-11-15T23:11:49;98870.50;;;14.96;64.11
25156;BME280;21913;52.456;13.634;2022-11-15T23:16:51;98860.06;;;14.96;64.12
25156;BME280;21913;52.456;13.634;2022-11-15T23:21:53;98857.47;;;14.96;64.20
25156;BME280;21913;52.456;13.634;2022-11-15T23:26:57;98856.63;;;14.96;64.23
25156;BME280;21913;52.456;13.634;2022-11-15T23:31:59;98859.22;;;14.96;64.28
25156;BME280;21913;52.456;13.634;2022-11-15T23:37:03;98851.41;;;14.96;64.36
25156;BME280;21913;52.456;13.634;2022-11-15T23:42:05;98837.53;;;14.95;64.24
25156;BME280;21913;52.456;13.634;2022-11-15T23:47:09;98838.38;;;14.96;64.32
25156;BME280;21913;52.456;13.634;2022-11-15T23:52:11;98830.56;;;14.96;64.35
25156;BME280;21913;52.456;13.634;2022-11-15T23:57:12;98833.19;;;14.96;64.45
